sensor_id;sensor_type;location;lat;lon;timestamp;temperature;humidity
14188;DHT22;7175;51.978;5.330;2023-04-03T00:01:21;4.30;99.90
14188;DHT22;7175;51.978;5.330;2023-04-03T00:03:50;4.30;99.90
14188;DHT22;7175;51.978;5.330;2023-04-03T00:06:19;4.20;99.90
14188;DHT22;7175;51.978;5.330;2023-04-03T00:08:48;4.20;99.90
14188;DHT22;7175;51.978;5.330;2023-04-03T00:11:18;4.20;99.90
14188;DHT22;7175;51.978;5.330;2023-04-03T00:13:47;4.20;99.90
14188;DHT22;7175;51.978;5.330;2023-04-03T00:16:16;4.20;99.90
14188;DHT22;7175;51.978;5.330;2023-04-03T00:18:44;4.10;99.90
14188;DHT22;7175;51.978;5.330;2023-04-03T00:21:13;4.10;99.90
14188;DHT22;7175;51.978;5.330;2023-04-03T00:23:43;4.10;99.90
14188;DHT22;7175;51.978;5.330;2023-04-03T00:26:11;4.00;99.90
14188;DHT22;7175;51.978;5.330;2023-04-03T00:28:41;4.00;99.90
14188;DHT22;7175;51.978;5.330;2023-04-03T00:31:10;4.00;99.90
14188;DHT22;7175;51.978;5.330;2023-04-03T00:33:39;3.90;99.90
14188;DHT22;7175;51.978;5.330;2023-04-03T00:36:08;3.90;99.90
14188;DHT22;7175;51.978;5.330;2023-04-03T00:38:37;3.90;99.90
14188;DHT22;7175;51.978;5.330;2023-04-03T00:41:07;3.90;99.90
14188;DHT22;7175;51.978;5.330;2023-04-03T00:43:35;3.90;99.90
14188;DHT22;7175;51.978;5.330;2023-04-03T00:46:06;3.90;99.90
14188;DHT22;7175;51.978;5.330;2023-04-03T00:48:37;3.90;99.90
14188;DHT22;7175;51.978;5.330;2023-04-03T00:51:10;3.80;99.90
14188;DHT22;7175;51.978;5.330;2023-04-03T00:53:43;3.80;99.90
14188;DHT22;7175;51.978;5.330;2023-04-03T00:56:15;3.80;99.90
14188;DHT22;7175;51.978;5.330;2023-04-03T00:58:47;3.70;99.90
14188;DHT22;7175;51.978;5.330;2023-04-03T01:01:21;3.70;99.90
14188;DHT22;7175;51.978;5.330;2023-04-03T01:03:51;3.60;99.90
14188;DHT22;7175;51.978;5.330;2023-04-03T01:06:23;3.60;99.90
14188;DHT22;7175;51.978;5.330;2023-04-03T01:08:53;3.60;99.90
14188;DHT22;7175;51.978;5.330;2023-04-03T01:11:22;3.60;99.90
14188;DHT22;7175;51.978;5.330;2023-04-03T01:13:52;3.60;99.90
14188;DHT22;7175;51.978;5.330;2023-04-03T01:16:21;3.60;99.90
14188;DHT22;7175;51.978;5.330;2023-04-03T01:18:50;3.60;99.90
14188;DHT22;7175;51.978;5.330;2023-04-03T01:24:34;3.60;99.90
14188;DHT22;7175;51.978;5.330;2023-04-03T01:27:04;3.60;99.90
14188;DHT22;7175;51.978;5.330;2023-04-03T01:29:34;3.50;99.90
14188;DHT22;7175;51.978;5.330;2023-04-03T01:32:04;3.50;99.90
14188;DHT22;7175;51.978;5.330;2023-04-03T01:34:33;3.50;99.90
14188;DHT22;7175;51.978;5.330;2023-04-03T01:37:02;3.40;99.90
14188;DHT22;7175;51.978;5.330;2023-04-03T01:39:30;3.40;99.90
14188;DHT22;7175;51.978;5.330;2023-04-03T01:41:59;3.40;99.90
14188;DHT22;7175;51.978;5.330;2023-04-03T01:44:27;3.40;99.90
14188;DHT22;7175;51.978;5.330;2023-04-03T01:46:56;3.40;99.90
14188;DHT22;7175;51.978;5.330;2023-04-03T01:49:26;3.30;99.90
14188;DHT22;7175;51.978;5.330;2023-04-03T01:51:54;3.30;99.90
14188;DHT22;7175;51.978;5.330;2023-04-03T01:54:23;3.30;99.90
14188;DHT22;7175;51.978;5.330;2023-04-03T01:56:51;3.30;99.90
14188;DHT22;7175;51.978;5.330;2023-04-03T01:59:20;3.20;99.90
14188;DHT22;7175;51.978;5.330;2023-04-03T02:01:49;3.20;99.90
14188;DHT22;7175;51.978;5.330;2023-04-03T02:04:17;3.20;99.90
14188;DHT22;7175;51.978;5.330;2023-04-03T02:06:48;3.20;99.90
14188;DHT22;7175;51.978;5.330;2023-04-03T02:09:17;3.20;99.90
14188;DHT22;7175;51.978;5.330;2023-04-03T02:11:45;3.10;99.90
14188;DHT22;7175;51.978;5.330;2023-04-03T02:14:14;3.10;99.90
14188;DHT22;7175;51.978;5.330;2023-04-03T02:16:42;3.10;99.90
14188;DHT22;7175;51.978;5.330;2023-04-03T02:19:11;3.10;99.90
14188;DHT22;7175;51.978;5.330;2023-04-03T02:21:39;3.10;99.90
14188;DHT22;7175;51.978;5.330;2023-04-03T02:24:09;3.10;99.90
14188;DHT22;7175;51.978;5.330;2023-04-03T02:26:37;3.00;99.90
14188;DHT22;7175;51.978;5.330;2023-04-03T02:29:06;3.00;99.90
14188;DHT22;7175;51.978;5.330;2023-04-03T02:31:34;3.00;99.90
14188;DHT22;7175;51.978;5.330;2023-04-03T02:34:03;3.00;99.90
14188;DHT22;7175;51.978;5.330;2023-04-03T02:36:31;3.00;99.90
14188;DHT22;7175;51.978;5.330;2023-04-03T02:39:00;3.00;99.90
14188;DHT22;7175;51.978;5.330;2023-04-03T02:41:31;3.00;99.90
14188;DHT22;7175;51.978;5.330;2023-04-03T02:44:02;3.00;99.90
14188;DHT22;7175;51.978;5.330;2023-04-03T02:46:32;3.00;99.90
14188;DHT22;7175;51.978;5.330;2023-04-03T02:49:00;3.00;99.90
14188;DHT22;7175;51.978;5.330;2023-04-03T02:51:29;3.00;99.90
14188;DHT22;7175;51.978;5.330;2023-04-03T02:53:58;3.00;99.90
14188;DHT22;7175;51.978;5.330;2023-04-03T02:56:26;3.00;99.90
14188;DHT22;7175;51.978;5.330;2023-04-03T02:58:56;3.00;99.90
14188;DHT22;7175;51.978;5.330;2023-04-03T03:01:25;3.00;99.90
14188;DHT22;7175;51.978;5.330;2023-04-03T03:03:55;3.00;99.90
14188;DHT22;7175;51.978;5.330;2023-04-03T03:06:24;3.10;99.90
14188;DHT22;7175;51.978;5.330;2023-04-03T03:08:52;3.00;99.90
14188;DHT22;7175;51.978;5.330;2023-04-03T03:11:21;3.00;99.90
14188;DHT22;7175;51.978;5.330;2023-04-03T03:13:49;3.00;99.90
14188;DHT22;7175;51.978;5.330;2023-04-03T03:16:19;3.00;99.90
14188;DHT22;7175;51.978;5.330;2023-04-03T03:18:47;2.90;99.90
14188;DHT22;7175;51.978;5.330;2023-04-03T03:21:16;3.00;99.90
14188;DHT22;7175;51.978;5.330;2023-04-03T03:23:44;2.90;99.90
14188;DHT22;7175;51.978;5.330;2023-04-03T03:26:13;2.90;99.90
14188;DHT22;7175;51.978;5.330;2023-04-03T03:28:42;2.90;99.90
14188;DHT22;7175;51.978;5.330;2023-04-03T03:31:10;2.80;99.90
14188;DHT22;7175;51.978;5.330;2023-04-03T03:33:40;2.80;99.90
14188;DHT22;7175;51.978;5.330;2023-04-03T03:36:09;2.80;99.90
14188;DHT22;7175;51.978;5.330;2023-04-03T03:38:39;2.80;99.90
14188;DHT22;7175;51.978;5.330;2023-04-03T03:41:07;2.80;99.90
14188;DHT22;7175;51.978;5.330;2023-04-03T03:43:36;2.70;99.90
14188;DHT22;7175;51.978;5.330;2023-04-03T03:46:05;2.70;99.90
14188;DHT22;7175;51.978;5.330;2023-04-03T03:48:33;2.70;99.90
14188;DHT22;7175;51.978;5.330;2023-04-03T03:51:03;2.70;99.90
14188;DHT22;7175;51.978;5.330;2023-04-03T03:53:32;2.70;99.90
14188;DHT22;7175;51.978;5.330;2023-04-03T03:56:01;2.60;99.90
14188;DHT22;7175;51.978;5.330;2023-04-03T03:58:29;2.60;99.90
14188;DHT22;7175;51.978;5.330;2023-04-03T04:01:00;2.60;99.90
14188;DHT22;7175;51.978;5.330;2023-04-03T04:03:29;2.60;99.90
14188;DHT22;7175;51.978;5.330;2023-04-03T04:05:58;2.70;99.90
14188;DHT22;7175;51.978;5.330;2023-04-03T04:08:27;2.60;99.90
14188;DHT22;7175;51.978;5.330;2023-04-03T04:10:56;2.60;99.90
14188;DHT22;7175;51.978;5.330;2023-04-03T04:13:25;2.60;99.90
14188;DHT22;7175;51.978;5.330;2023-04-03T04:15:53;2.60;99.90
14188;DHT22;7175;51.978;5.330;2023-04-03T04:18:22;2.50;99.90
14188;DHT22;7175;51.978;5.330;2023-04-03T04:20:51;2.50;99.90
14188;DHT22;7175;51.978;5.330;2023-04-03T04:23:19;2.50;99.90
14188;DHT22;7175;51.978;5.330;2023-04-03T04:25:49;2.50;99.90
14188;DHT22;7175;51.978;5.330;2023-04-03T04:28:18;2.50;99.90
14188;DHT22;7175;51.978;5.330;2023-04-03T04:30:46;2.50;99.90
14188;DHT22;7175;51.978;5.330;2023-04-03T04:33:15;2.50;99.90
14188;DHT22;7175;51.978;5.330;2023-04-03T04:35:43;2.50;99.90
14188;DHT22;7175;51.978;5.330;2023-04-03T04:38:12;2.50;99.90
14188;DHT22;7175;51.978;5.330;2023-04-03T04:40:41;2.50;99.90
14188;DHT22;7175;51.978;5.330;2023-04-03T04:43:10;2.50;99.90
14188;DHT22;7175;51.978;5.330;2023-04-03T04:45:42;2.50;99.90
14188;DHT22;7175;51.978;5.330;2023-04-03T04:48:10;2.50;99.90
14188;DHT22;7175;51.978;5.330;2023-04-03T04:50:38;2.40;99.90
14188;DHT22;7175;51.978;5.330;2023-04-03T04:53:07;2.40;99.90
14188;DHT22;7175;51.978;5.330;2023-04-03T04:55:35;2.40;99.90
14188;DHT22;7175;51.978;5.330;2023-04-03T04:58:04;2.40;99.90
14188;DHT22;7175;51.978;5.330;2023-04-03T05:00:34;2.30;99.90
14188;DHT22;7175;51.978;5.330;2023-04-03T05:03:03;2.30;99.90
14188;DHT22;7175;51.978;5.330;2023-04-03T05:05:31;2.30;99.90
14188;DHT22;7175;51.978;5.330;2023-04-03T05:08:00;2.20;99.90
14188;DHT22;7175;51.978;5.330;2023-04-03T05:10:28;2.20;99.90
14188;DHT22;7175;51.978;5.330;2023-04-03T05:12:57;2.20;99.90
14188;DHT22;7175;51.978;5.330;2023-04-03T05:15:26;2.10;99.90
14188;DHT22;7175;51.978;5.330;2023-04-03T05:17:56;2.10;99.90
14188;DHT22;7175;51.978;5.330;2023-04-03T05:20:25;2.10;99.90
14188;DHT22;7175;51.978;5.330;2023-04-03T05:22:53;2.10;99.90
14188;DHT22;7175;51.978;5.330;2023-04-03T05:25:22;2.00;99.90
14188;DHT22;7175;51.978;5.330;2023-04-03T05:27:53;2.00;99.90
14188;DHT22;7175;51.978;5.330;2023-04-03T05:30:22;2.00;99.90
14188;DHT22;7175;51.978;5.330;2023-04-03T05:32:50;1.90;99.90
14188;DHT22;7175;51.978;5.330;2023-04-03T05:35:20;1.90;99.90
14188;DHT22;7175;51.978;5.330;2023-04-03T05:37:49;1.90;99.90
14188;DHT22;7175;51.978;5.330;2023-04-03T05:40:18;1.90;99.90
14188;DHT22;7175;51.978;5.330;2023-04-03T05:42:47;1.90;99.90
14188;DHT22;7175;51.978;5.330;2023-04-03T05:45:16;1.90;99.90
14188;DHT22;7175;51.978;5.330;2023-04-03T05:47:45;1.90;99.90
14188;DHT22;7175;51.978;5.330;2023-04-03T05:50:14;2.00;99.90
14188;DHT22;7175;51.978;5.330;2023-04-03T05:52:45;2.00;99.90
14188;DHT22;7175;51.978;5.330;2023-04-03T05:55:15;2.00;99.90
14188;DHT22;7175;51.978;5.330;2023-04-03T05:57:43;2.10;99.90
14188;DHT22;7175;51.978;5.330;2023-04-03T06:00:14;2.10;99.90
14188;DHT22;7175;51.978;5.330;2023-04-03T06:02:42;2.20;99.90
14188;DHT22;7175;51.978;5.330;2023-04-03T06:05:11;2.20;99.90
14188;DHT22;7175;51.978;5.330;2023-04-03T06:07:40;2.30;99.90
14188;DHT22;7175;51.978;5.330;2023-04-03T06:10:11;2.30;99.90
14188;DHT22;7175;51.978;5.330;2023-04-03T06:12:40;2.40;99.90
14188;DHT22;7175;51.978;5.330;2023-04-03T06:15:09;2.50;99.90
14188;DHT22;7175;51.978;5.330;2023-04-03T06:17:39;2.60;99.90
14188;DHT22;7175;51.978;5.330;2023-04-03T06:20:09;2.70;99.90
14188;DHT22;7175;51.978;5.330;2023-04-03T06:22:38;2.80;99.90
14188;DHT22;7175;51.978;5.330;2023-04-03T06:25:09;2.90;99.90
14188;DHT22;7175;51.978;5.330;2023-04-03T06:27:39;3.10;99.90
14188;DHT22;7175;51.978;5.330;2023-04-03T06:30:08;3.20;99.90
14188;DHT22;7175;51.978;5.330;2023-04-03T06:32:38;3.30;99.90
14188;DHT22;7175;51.978;5.330;2023-04-03T06:35:07;3.40;99.90
14188;DHT22;7175;51.978;5.330;2023-04-03T06:37:35;3.50;99.90
14188;DHT22;7175;51.978;5.330;2023-04-03T06:40:05;3.60;99.90
14188;DHT22;7175;51.978;5.330;2023-04-03T06:42:35;3.70;99.90
14188;DHT22;7175;51.978;5.330;2023-04-03T06:45:05;3.80;99.90
14188;DHT22;7175;51.978;5.330;2023-04-03T06:47:34;3.90;99.90
14188;DHT22;7175;51.978;5.330;2023-04-03T06:50:03;4.00;99.90
14188;DHT22;7175;51.978;5.330;2023-04-03T06:52:33;4.10;99.90
14188;DHT22;7175;51.978;5.330;2023-04-03T06:55:04;4.30;99.90
14188;DHT22;7175;51.978;5.330;2023-04-03T06:57:35;4.50;99.90
14188;DHT22;7175;51.978;5.330;2023-04-03T07:00:05;4.50;99.90
14188;DHT22;7175;51.978;5.330;2023-04-03T07:02:34;4.50;99.90
14188;DHT22;7175;51.978;5.330;2023-04-03T07:05:02;4.70;99.90
14188;DHT22;7175;51.978;5.330;2023-04-03T07:07:31;4.60;99.90
14188;DHT22;7175;51.978;5.330;2023-04-03T07:10:01;4.80;99.90
14188;DHT22;7175;51.978;5.330;2023-04-03T07:12:29;5.10;99.90
14188;DHT22;7175;51.978;5.330;2023-04-03T07:14:59;5.20;99.90
14188;DHT22;7175;51.978;5.330;2023-04-03T07:17:28;5.20;99.90
14188;DHT22;7175;51.978;5.330;2023-04-03T07:19:56;5.40;99.90
14188;DHT22;7175;51.978;5.330;2023-04-03T07:22:24;5.60;99.90
14188;DHT22;7175;51.978;5.330;2023-04-03T07:24:53;5.30;99.90
14188;DHT22;7175;51.978;5.330;2023-04-03T07:27:21;5.50;99.90
14188;DHT22;7175;51.978;5.330;2023-04-03T07:29:50;5.70;99.90
14188;DHT22;7175;51.978;5.330;2023-04-03T07:32:22;5.90;99.90
14188;DHT22;7175;51.978;5.330;2023-04-03T07:34:50;5.60;99.90
14188;DHT22;7175;51.978;5.330;2023-04-03T07:37:19;5.80;99.90
14188;DHT22;7175;51.978;5.330;2023-04-03T07:39:48;5.80;99.90
14188;DHT22;7175;51.978;5.330;2023-04-03T07:42:16;5.90;99.90
14188;DHT22;7175;51.978;5.330;2023-04-03T07:44:45;5.90;99.90
14188;DHT22;7175;51.978;5.330;2023-04-03T07:47:14;5.70;99.90
14188;DHT22;7175;51.978;5.330;2023-04-03T07:49:46;5.90;99.90
14188;DHT22;7175;51.978;5.330;2023-04-03T07:52:15;5.90;99.90
14188;DHT22;7175;51.978;5.330;2023-04-03T07:54:44;6.10;99.90
14188;DHT22;7175;51.978;5.330;2023-04-03T07:57:13;6.40;99.90
14188;DHT22;7175;51.978;5.330;2023-04-03T07:59:42;6.60;99.90
14188;DHT22;7175;51.978;5.330;2023-04-03T08:02:10;6.20;99.90
14188;DHT22;7175;51.978;5.330;2023-04-03T08:04:39;6.30;99.90
14188;DHT22;7175;51.978;5.330;2023-04-03T08:07:09;6.20;99.90
14188;DHT22;7175;51.978;5.330;2023-04-03T08:09:37;6.10;99.90
14188;DHT22;7175;51.978;5.330;2023-04-03T08:12:06;6.60;99.90
14188;DHT22;7175;51.978;5.330;2023-04-03T08:14:34;6.60;99.90
14188;DHT22;7175;51.978;5.330;2023-04-03T08:17:03;6.60;99.90
14188;DHT22;7175;51.978;5.330;2023-04-03T08:19:32;6.60;99.90
14188;DHT22;7175;51.978;5.330;2023-04-03T08:22:00;6.50;99.90
14188;DHT22;7175;51.978;5.330;2023-04-03T08:24:31;6.60;99.90
14188;DHT22;7175;51.978;5.330;2023-04-03T08:27:00;6.70;99.90
14188;DHT22;7175;51.978;5.330;2023-04-03T08:29:28;7.00;99.90
14188;DHT22;7175;51.978;5.330;2023-04-03T08:31:59;6.70;99.90
14188;DHT22;7175;51.978;5.330;2023-04-03T08:34:28;7.10;99.90
14188;DHT22;7175;51.978;5.330;2023-04-03T08:36:56;7.50;99.90
14188;DHT22;7175;51.978;5.330;2023-04-03T08:39:25;7.40;99.90
14188;DHT22;7175;51.978;5.330;2023-04-03T08:41:57;7.70;99.90
14188;DHT22;7175;51.978;5.330;2023-04-03T08:44:34;8.10;99.90
14188;DHT22;7175;51.978;5.330;2023-04-03T08:47:14;8.30;99.90
14188;DHT22;7175;51.978;5.330;2023-04-03T08:49:49;8.50;99.90
14188;DHT22;7175;51.978;5.330;2023-04-03T08:52:24;8.40;99.90
14188;DHT22;7175;51.978;5.330;2023-04-03T08:55:00;8.30;99.90
14188;DHT22;7175;51.978;5.330;2023-04-03T08:57:35;8.10;99.90
14188;DHT22;7175;51.978;5.330;2023-04-03T09:00:07;8.10;99.90
14188;DHT22;7175;51.978;5.330;2023-04-03T09:02:42;8.20;99.90
14188;DHT22;7175;51.978;5.330;2023-04-03T09:05:15;8.00;99.90
14188;DHT22;7175;51.978;5.330;2023-04-03T09:07:46;8.20;99.90
14188;DHT22;7175;51.978;5.330;2023-04-03T09:10:20;8.70;99.90
14188;DHT22;7175;51.978;5.330;2023-04-03T09:12:58;8.40;99.90
14188;DHT22;7175;51.978;5.330;2023-04-03T09:15:27;8.50;99.90
14188;DHT22;7175;51.978;5.330;2023-04-03T09:18:08;8.20;99.90
14188;DHT22;7175;51.978;5.330;2023-04-03T09:20:45;8.00;99.90
14188;DHT22;7175;51.978;5.330;2023-04-03T09:23:22;8.30;99.90
14188;DHT22;7175;51.978;5.330;2023-04-03T09:25:56;8.50;99.90
14188;DHT22;7175;51.978;5.330;2023-04-03T09:28:27;8.70;99.90
14188;DHT22;7175;51.978;5.330;2023-04-03T09:31:19;8.90;99.90
14188;DHT22;7175;51.978;5.330;2023-04-03T09:33:49;8.80;99.90
14188;DHT22;7175;51.978;5.330;2023-04-03T09:36:37;9.00;99.90
14188;DHT22;7175;51.978;5.330;2023-04-03T09:39:10;8.70;99.90
14188;DHT22;7175;51.978;5.330;2023-04-03T09:41:39;8.60;99.90
14188;DHT22;7175;51.978;5.330;2023-04-03T09:44:26;8.60;99.90
14188;DHT22;7175;51.978;5.330;2023-04-03T09:46:55;9.30;99.90
14188;DHT22;7175;51.978;5.330;2023-04-03T09:49:23;8.80;99.90
14188;DHT22;7175;51.978;5.330;2023-04-03T09:51:52;8.80;99.90
14188;DHT22;7175;51.978;5.330;2023-04-03T09:54:41;8.80;99.90
14188;DHT22;7175;51.978;5.330;2023-04-03T09:57:12;9.00;99.90
14188;DHT22;7175;51.978;5.330;2023-04-03T09:59:46;9.60;99.90
14188;DHT22;7175;51.978;5.330;2023-04-03T10:02:28;9.30;99.90
14188;DHT22;7175;51.978;5.330;2023-04-03T10:04:59;9.50;99.90
14188;DHT22;7175;51.978;5.330;2023-04-03T10:07:32;9.70;99.90
14188;DHT22;7175;51.978;5.330;2023-04-03T10:10:16;9.30;98.30
14188;DHT22;7175;51.978;5.330;2023-04-03T10:12:47;9.90;99.90
14188;DHT22;7175;51.978;5.330;2023-04-03T10:15:18;9.90;96.80
14188;DHT22;7175;51.978;5.330;2023-04-03T10:17:55;9.50;90.20
14188;DHT22;7175;51.978;5.330;2023-04-03T10:20:36;9.00;77.70
14188;DHT22;7175;51.978;5.330;2023-04-03T10:23:15;9.20;77.70
14188;DHT22;7175;51.978;5.330;2023-04-03T10:25:59;9.80;80.00
14188;DHT22;7175;51.978;5.330;2023-04-03T10:28:35;9.80;76.50
14188;DHT22;7175;51.978;5.330;2023-04-03T10:31:14;9.90;70.30
14188;DHT22;7175;51.978;5.330;2023-04-03T10:33:53;9.50;65.70
14188;DHT22;7175;51.978;5.330;2023-04-03T10:36:33;9.70;72.00
14188;DHT22;7175;51.978;5.330;2023-04-03T10:39:12;9.80;66.40
14188;DHT22;7175;51.978;5.330;2023-04-03T10:41:54;9.90;67.80
14188;DHT22;7175;51.978;5.330;2023-04-03T10:44:52;9.80;62.30
14188;DHT22;7175;51.978;5.330;2023-04-03T10:47:32;9.70;60.40
14188;DHT22;7175;51.978;5.330;2023-04-03T10:50:20;9.80;59.10
14188;DHT22;7175;51.978;5.330;2023-04-03T10:52:56;9.80;57.40
14188;DHT22;7175;51.978;5.330;2023-04-03T10:55:33;9.50;56.30
14188;DHT22;7175;51.978;5.330;2023-04-03T10:58:05;9.70;56.30
14188;DHT22;7175;51.978;5.330;2023-04-03T11:00:39;9.50;52.70
14188;DHT22;7175;51.978;5.330;2023-04-03T11:03:14;9.60;53.30
14188;DHT22;7175;51.978;5.330;2023-04-03T11:05:46;9.60;54.20
14188;DHT22;7175;51.978;5.330;2023-04-03T11:08:25;10.30;56.70
14188;DHT22;7175;51.978;5.330;2023-04-03T11:10:57;10.20;56.70
14188;DHT22;7175;51.978;5.330;2023-04-03T11:13:33;9.90;55.00
14188;DHT22;7175;51.978;5.330;2023-04-03T11:16:03;10.20;57.10
14188;DHT22;7175;51.978;5.330;2023-04-03T11:18:41;9.80;55.30
14188;DHT22;7175;51.978;5.330;2023-04-03T11:21:17;9.80;55.50
14188;DHT22;7175;51.978;5.330;2023-04-03T11:23:48;9.60;55.00
14188;DHT22;7175;51.978;5.330;2023-04-03T11:26:21;9.70;57.30
14188;DHT22;7175;51.978;5.330;2023-04-03T11:28:55;9.60;57.70
14188;DHT22;7175;51.978;5.330;2023-04-03T11:31:53;10.00;56.60
14188;DHT22;7175;51.978;5.330;2023-04-03T11:34:33;10.40;58.90
14188;DHT22;7175;51.978;5.330;2023-04-03T11:37:11;10.40;58.20
14188;DHT22;7175;51.978;5.330;2023-04-03T11:39:49;10.20;58.80
14188;DHT22;7175;51.978;5.330;2023-04-03T11:42:33;10.60;63.00
14188;DHT22;7175;51.978;5.330;2023-04-03T11:45:34;10.90;59.90
14188;DHT22;7175;51.978;5.330;2023-04-03T11:48:06;10.70;58.50
14188;DHT22;7175;51.978;5.330;2023-04-03T11:50:52;10.80;59.40
14188;DHT22;7175;51.978;5.330;2023-04-03T11:53:33;10.60;58.10
14188;DHT22;7175;51.978;5.330;2023-04-03T11:56:31;10.70;59.60
14188;DHT22;7175;51.978;5.330;2023-04-03T11:59:24;10.50;57.50
14188;DHT22;7175;51.978;5.330;2023-04-03T12:01:56;10.40;57.90
14188;DHT22;7175;51.978;5.330;2023-04-03T12:04:27;10.60;58.00
14188;DHT22;7175;51.978;5.330;2023-04-03T12:07:12;10.50;58.30
14188;DHT22;7175;51.978;5.330;2023-04-03T12:10:18;10.60;57.20
14188;DHT22;7175;51.978;5.330;2023-04-03T12:12:59;10.50;54.70
14188;DHT22;7175;51.978;5.330;2023-04-03T12:15:52;11.00;56.80
14188;DHT22;7175;51.978;5.330;2023-04-03T12:18:55;10.80;56.00
14188;DHT22;7175;51.978;5.330;2023-04-03T12:24:29;10.60;54.70
14188;DHT22;7175;51.978;5.330;2023-04-03T12:27:05;10.40;53.30
14188;DHT22;7175;51.978;5.330;2023-04-03T12:29:38;10.90;54.20
14188;DHT22;7175;51.978;5.330;2023-04-03T12:32:22;11.10;56.60
14188;DHT22;7175;51.978;5.330;2023-04-03T12:35:07;11.00;55.40
14188;DHT22;7175;51.978;5.330;2023-04-03T12:37:48;11.10;54.40
14188;DHT22;7175;51.978;5.330;2023-04-03T12:40:26;11.00;54.70
14188;DHT22;7175;51.978;5.330;2023-04-03T12:43:09;11.00;54.80
14188;DHT22;7175;51.978;5.330;2023-04-03T12:45:46;10.90;52.70
14188;DHT22;7175;51.978;5.330;2023-04-03T12:48:17;10.70;52.60
14188;DHT22;7175;51.978;5.330;2023-04-03T12:50:47;10.80;53.10
14188;DHT22;7175;51.978;5.330;2023-04-03T12:53:19;10.90;54.20
14188;DHT22;7175;51.978;5.330;2023-04-03T12:55:55;11.60;55.70
14188;DHT22;7175;51.978;5.330;2023-04-03T12:58:25;11.60;54.50
14188;DHT22;7175;51.978;5.330;2023-04-03T13:01:02;11.60;56.10
14188;DHT22;7175;51.978;5.330;2023-04-03T13:03:32;11.30;54.90
14188;DHT22;7175;51.978;5.330;2023-04-03T13:06:02;11.10;54.00
14188;DHT22;7175;51.978;5.330;2023-04-03T13:08:32;11.40;57.60
14188;DHT22;7175;51.978;5.330;2023-04-03T13:11:05;11.80;57.90
14188;DHT22;7175;51.978;5.330;2023-04-03T13:13:36;11.90;55.70
14188;DHT22;7175;51.978;5.330;2023-04-03T13:16:08;11.50;54.10
14188;DHT22;7175;51.978;5.330;2023-04-03T13:18:38;11.10;54.50
14188;DHT22;7175;51.978;5.330;2023-04-03T13:21:13;11.20;56.40
14188;DHT22;7175;51.978;5.330;2023-04-03T13:23:46;11.00;54.00
14188;DHT22;7175;51.978;5.330;2023-04-03T13:26:26;11.80;55.60
14188;DHT22;7175;51.978;5.330;2023-04-03T13:28:57;12.30;56.80
14188;DHT22;7175;51.978;5.330;2023-04-03T13:31:30;11.60;55.80
14188;DHT22;7175;51.978;5.330;2023-04-03T13:34:06;11.70;54.80
14188;DHT22;7175;51.978;5.330;2023-04-03T13:36:38;11.60;55.80
14188;DHT22;7175;51.978;5.330;2023-04-03T13:39:23;11.30;56.50
14188;DHT22;7175;51.978;5.330;2023-04-03T13:41:55;11.40;57.00
14188;DHT22;7175;51.978;5.330;2023-04-03T13:44:31;12.00;59.10
14188;DHT22;7175;51.978;5.330;2023-04-03T13:47:15;12.40;59.90
14188;DHT22;7175;51.978;5.330;2023-04-03T13:49:58;11.70;54.80
14188;DHT22;7175;51.978;5.330;2023-04-03T13:52:29;11.20;54.70
14188;DHT22;7175;51.978;5.330;2023-04-03T13:55:02;11.20;55.30
14188;DHT22;7175;51.978;5.330;2023-04-03T13:57:51;11.40;57.30
14188;DHT22;7175;51.978;5.330;2023-04-03T14:00:32;11.30;56.20
14188;DHT22;7175;51.978;5.330;2023-04-03T14:03:02;11.30;54.60
14188;DHT22;7175;51.978;5.330;2023-04-03T14:05:31;11.00;54.70
14188;DHT22;7175;51.978;5.330;2023-04-03T14:08:00;11.60;58.60
14188;DHT22;7175;51.978;5.330;2023-04-03T14:10:31;11.90;56.00
14188;DHT22;7175;51.978;5.330;2023-04-03T14:13:01;11.80;56.40
14188;DHT22;7175;51.978;5.330;2023-04-03T14:15:31;11.50;60.40
14188;DHT22;7175;51.978;5.330;2023-04-03T14:18:00;11.50;57.00
14188;DHT22;7175;51.978;5.330;2023-04-03T14:20:32;11.20;56.30
14188;DHT22;7175;51.978;5.330;2023-04-03T14:23:01;11.40;59.90
14188;DHT22;7175;51.978;5.330;2023-04-03T14:25:30;10.90;57.00
14188;DHT22;7175;51.978;5.330;2023-04-03T14:28:00;11.00;60.20
14188;DHT22;7175;51.978;5.330;2023-04-03T14:30:32;10.90;59.00
14188;DHT22;7175;51.978;5.330;2023-04-03T14:33:01;10.40;57.80
14188;DHT22;7175;51.978;5.330;2023-04-03T14:35:30;10.60;59.70
14188;DHT22;7175;51.978;5.330;2023-04-03T14:37:58;10.30;56.90
14188;DHT22;7175;51.978;5.330;2023-04-03T14:40:27;10.50;59.20
14188;DHT22;7175;51.978;5.330;2023-04-03T14:42:55;10.40;59.20
14188;DHT22;7175;51.978;5.330;2023-04-03T14:45:26;10.20;59.30
14188;DHT22;7175;51.978;5.330;2023-04-03T14:47:56;10.20;59.00
14188;DHT22;7175;51.978;5.330;2023-04-03T14:50:26;10.30;61.20
14188;DHT22;7175;51.978;5.330;2023-04-03T14:52:57;10.30;62.00
14188;DHT22;7175;51.978;5.330;2023-04-03T14:55:26;10.40;63.30
14188;DHT22;7175;51.978;5.330;2023-04-03T14:57:55;10.30;61.50
14188;DHT22;7175;51.978;5.330;2023-04-03T15:00:26;10.30;62.10
14188;DHT22;7175;51.978;5.330;2023-04-03T15:02:54;10.40;63.10
14188;DHT22;7175;51.978;5.330;2023-04-03T15:05:23;10.30;64.80
14188;DHT22;7175;51.978;5.330;2023-04-03T15:07:54;10.20;64.30
14188;DHT22;7175;51.978;5.330;2023-04-03T15:10:25;10.20;62.00
14188;DHT22;7175;51.978;5.330;2023-04-03T15:12:55;10.30;66.00
14188;DHT22;7175;51.978;5.330;2023-04-03T15:15:27;10.20;64.20
14188;DHT22;7175;51.978;5.330;2023-04-03T15:17:57;10.30;68.70
14188;DHT22;7175;51.978;5.330;2023-04-03T15:20:27;10.30;65.30
14188;DHT22;7175;51.978;5.330;2023-04-03T15:22:58;10.40;67.50
14188;DHT22;7175;51.978;5.330;2023-04-03T15:25:28;10.30;68.40
14188;DHT22;7175;51.978;5.330;2023-04-03T15:27:57;10.20;67.70
14188;DHT22;7175;51.978;5.330;2023-04-03T15:30:27;10.10;66.70
14188;DHT22;7175;51.978;5.330;2023-04-03T15:32:56;10.20;70.10
14188;DHT22;7175;51.978;5.330;2023-04-03T15:35:24;10.20;71.10
14188;DHT22;7175;51.978;5.330;2023-04-03T15:37:53;10.20;67.10
14188;DHT22;7175;51.978;5.330;2023-04-03T15:40:21;10.10;68.70
14188;DHT22;7175;51.978;5.330;2023-04-03T15:42:50;10.10;68.30
14188;DHT22;7175;51.978;5.330;2023-04-03T15:45:20;10.20;67.60
14188;DHT22;7175;51.978;5.330;2023-04-03T15:47:50;10.10;67.70
14188;DHT22;7175;51.978;5.330;2023-04-03T15:50:19;10.10;67.70
14188;DHT22;7175;51.978;5.330;2023-04-03T15:52:49;10.10;69.00
14188;DHT22;7175;51.978;5.330;2023-04-03T15:55:21;10.10;70.10
14188;DHT22;7175;51.978;5.330;2023-04-03T15:57:50;10.20;70.40
14188;DHT22;7175;51.978;5.330;2023-04-03T16:00:19;10.00;69.60
14188;DHT22;7175;51.978;5.330;2023-04-03T16:02:52;10.10;69.80
14188;DHT22;7175;51.978;5.330;2023-04-03T16:05:21;10.00;67.20
14188;DHT22;7175;51.978;5.330;2023-04-03T16:07:50;10.10;69.70
14188;DHT22;7175;51.978;5.330;2023-04-03T16:10:19;10.10;67.30
14188;DHT22;7175;51.978;5.330;2023-04-03T16:12:48;9.80;66.10
14188;DHT22;7175;51.978;5.330;2023-04-03T16:15:16;9.80;67.30
14188;DHT22;7175;51.978;5.330;2023-04-03T16:17:45;9.80;72.30
14188;DHT22;7175;51.978;5.330;2023-04-03T16:20:16;9.70;69.90
14188;DHT22;7175;51.978;5.330;2023-04-03T16:22:45;9.70;70.50
14188;DHT22;7175;51.978;5.330;2023-04-03T16:25:14;9.70;71.90
14188;DHT22;7175;51.978;5.330;2023-04-03T16:27:42;9.60;73.30
14188;DHT22;7175;51.978;5.330;2023-04-03T16:30:11;9.60;72.90
14188;DHT22;7175;51.978;5.330;2023-04-03T16:32:40;9.50;73.50